Time;durP1;ratioP1;P1;durP2;ratioP2;P2;SDS_P1;SDS_P2;PMS_P1;PMS_P2;Temp;Humidity;BMP_temperature;BMP_pressure;BME280_temperature;BME280_humidity;BME280_pressure;Samples;Min_cycle;Max_cycle;Signal;HPM_P1;HPM_P2
2023/09/08 00:02:11;;;;;;;17.70;12.57;;;;;;;;;;5037969;28;20026;-79
2023/09/08 00:04:37;;;;;;;16.70;12.32;;;;;;;;;;5037406;28;20491;-78
2023/09/08 00:07:04;;;;;;;15.15;12.95;;;;;;;;;;5037674;28;20028;-79
2023/09/08 00:09:30;;;;;;;14.02;12.50;;;;;;;;;;5037141;28;20486;-79
2023/09/08 00:11:56;;;;;;;17.63;13.27;;;;;;;;;;5037277;28;20034;-78
2023/09/08 00:14:22;;;;;;;15.95;13.00;;;;;;;;;;5037100;28;20036;-78
2023/09/08 00:16:48;;;;;;;16.80;13.90;;;;;;;;;;5036817;28;20029;-79
2023/09/08 00:19:14;;;;;;;19.58;13.30;;;;;;;;;;5037263;28;20064;-78
2023/09/08 00:21:43;;;;;;;15.02;13.32;;;;;;;;;;5036947;28;20056;-78
2023/09/08 00:24:09;;;;;;;16.65;12.52;;;;;;;;;;5037092;28;20030;-78
2023/09/08 00:26:35;;;;;;;18.83;12.73;;;;;;;;;;5037285;28;20030;-78
2023/09/08 00:29:01;;;;;;;16.10;13.40;;;;;;;;;;5036545;28;20022;-78
2023/09/08 00:31:27;;;;;;;16.08;12.50;;;;;;;;;;5036147;28;20033;-78
2023/09/08 00:33:53;;;;;;;15.23;13.50;;;;;;;;;;5035769;28;20033;-78
2023/09/08 00:36:19;;;;;;;15.80;13.00;;;;;;;;;;5036004;28;20026;-78
2023/09/08 00:38:45;;;;;;;16.75;12.23;;;;;;;;;;5018525;28;20018;-78
2023/09/08 00:41:11;;;;;;;16.42;13.65;;;;;;;;;;5035949;28;20022;-78
2023/09/08 00:43:37;;;;;;;16.38;13.45;;;;;;;;;;5036525;28;20030;-78
2023/09/08 00:46:03;;;;;;;16.92;13.48;;;;;;;;;;5036003;28;20032;-79
2023/09/08 00:48:30;;;;;;;14.52;12.90;;;;;;;;;;5036109;28;20024;-79
2023/09/08 00:50:56;;;;;;;15.70;12.90;;;;;;;;;;5035969;28;20025;-78
2023/09/08 00:53:22;;;;;;;16.48;13.40;;;;;;;;;;5035591;28;20053;-79
2023/09/08 00:55:49;;;;;;;17.23;13.20;;;;;;;;;;5035488;28;20384;-78
2023/09/08 00:58:15;;;;;;;15.18;13.02;;;;;;;;;;5017691;28;20518;-78
2023/09/08 01:00:41;;;;;;;19.95;13.52;;;;;;;;;;5035345;28;20030;-78
2023/09/08 01:03:07;;;;;;;17.40;14.35;;;;;;;;;;5035527;28;20083;-78
2023/09/08 01:05:33;;;;;;;16.55;13.60;;;;;;;;;;5035209;28;20048;-78
2023/09/08 01:08:00;;;;;;;16.25;13.52;;;;;;;;;;5035541;28;20435;-78
2023/09/08 01:10:26;;;;;;;18.92;13.95;;;;;;;;;;5034889;28;20025;-78
2023/09/08 01:12:52;;;;;;;15.95;13.90;;;;;;;;;;5034921;28;20021;-78
2023/09/08 01:15:18;;;;;;;16.40;14.38;;;;;;;;;;5034825;28;20048;-78
2023/09/08 01:17:44;;;;;;;15.88;14.02;;;;;;;;;;5034928;28;20036;-78
2023/09/08 01:20:16;;;;;;;17.92;14.63;;;;;;;;;;5034858;28;20026;-78
2023/09/08 01:23:01;;;;;;;17.48;14.45;;;;;;;;;;5017096;28;20053;-78
2023/09/08 01:25:27;;;;;;;15.02;13.45;;;;;;;;;;5033996;28;20028;-78
2023/09/08 01:27:55;;;;;;;17.73;13.98;;;;;;;;;;5033992;28;20035;-78
2023/09/08 01:30:22;;;;;;;17.50;14.13;;;;;;;;;;5033991;28;20025;-78
2023/09/08 01:32:48;;;;;;;16.50;14.57;;;;;;;;;;5033497;28;20084;-78
2023/09/08 01:35:14;;;;;;;20.42;14.10;;;;;;;;;;5033463;28;20025;-78
2023/09/08 01:37:44;;;;;;;17.23;14.73;;;;;;;;;;5033643;28;20032;-78
2023/09/08 01:40:10;;;;;;;16.55;14.32;;;;;;;;;;5034289;28;20522;-78
2023/09/08 01:42:37;;;;;;;16.98;14.30;;;;;;;;;;5034059;28;20078;-78
2023/09/08 01:45:03;;;;;;;19.15;14.35;;;;;;;;;;5033841;28;20024;-77
2023/09/08 01:47:30;;;;;;;17.05;14.32;;;;;;;;;;5033595;28;20025;-78
2023/09/08 01:49:56;;;;;;;16.60;13.93;;;;;;;;;;5033535;28;20021;-78
2023/09/08 01:52:22;;;;;;;15.93;13.65;;;;;;;;;;5033319;28;20059;-78
2023/09/08 01:54:48;;;;;;;17.02;14.57;;;;;;;;;;5033483;28;20431;-77
2023/09/08 01:57:14;;;;;;;18.15;14.73;;;;;;;;;;5033479;28;20038;-78
2023/09/08 01:59:40;;;;;;;19.05;14.90;;;;;;;;;;5033348;28;20033;-78
2023/09/08 02:02:06;;;;;;;17.67;15.45;;;;;;;;;;5033256;28;20272;-78
2023/09/08 02:04:32;;;;;;;17.90;13.95;;;;;;;;;;5033516;28;20033;-78
2023/09/08 02:06:58;;;;;;;18.27;14.95;;;;;;;;;;5033184;28;20025;-78
2023/09/08 02:09:34;;;;;;;17.67;14.82;;;;;;;;;;5033551;28;20022;-78
2023/09/08 02:12:00;;;;;;;17.38;14.80;;;;;;;;;;5033191;28;20021;-78
2023/09/08 02:14:27;;;;;;;20.33;14.48;;;;;;;;;;5033205;28;20029;-78
2023/09/08 02:16:53;;;;;;;16.90;14.35;;;;;;;;;;5033324;28;20029;-78
2023/09/08 02:19:21;;;;;;;18.35;14.25;;;;;;;;;;5033119;28;20065;-78
2023/09/08 02:21:48;;;;;;;17.20;13.80;;;;;;;;;;5032914;28;20029;-78
2023/09/08 02:24:14;;;;;;;20.10;14.77;;;;;;;;;;5032789;28;20479;-78
2023/09/08 02:26:40;;;;;;;19.95;14.88;;;;;;;;;;5032929;28;20033;-78
2023/09/08 02:29:06;;;;;;;19.55;14.13;;;;;;;;;;5014975;28;20029;-78
2023/09/08 02:31:32;;;;;;;18.58;13.98;;;;;;;;;;5032759;28;20032;-78
2023/09/08 02:33:58;;;;;;;17.63;14.07;;;;;;;;;;5032743;28;20041;-78
2023/09/08 02:36:27;;;;;;;18.33;15.32;;;;;;;;;;5032336;28;20029;-77
2023/09/08 02:38:53;;;;;;;18.93;14.77;;;;;;;;;;5032341;28;20085;-78
2023/09/08 02:41:19;;;;;;;17.60;15.27;;;;;;;;;;5032521;28;20025;-78
2023/09/08 02:43:45;;;;;;;19.55;15.20;;;;;;;;;;5032860;28;20025;-78
2023/09/08 02:46:11;;;;;;;15.95;14.23;;;;;;;;;;5032611;28;20105;-78
2023/09/08 02:48:38;;;;;;;20.88;15.38;;;;;;;;;;5032500;28;20033;-78
2023/09/08 02:51:04;;;;;;;17.42;15.25;;;;;;;;;;5032611;28;20026;-78
2023/09/08 02:53:30;;;;;;;18.20;15.32;;;;;;;;;;5023287;28;20056;-78
2023/09/08 02:55:56;;;;;;;18.50;14.82;;;;;;;;;;5032683;28;20029;-77
2023/09/08 02:58:23;;;;;;;19.45;15.07;;;;;;;;;;5032414;28;20026;-77
2023/09/08 03:00:50;;;;;;;19.73;16.00;;;;;;;;;;5032550;28;20025;-78
2023/09/08 03:03:16;;;;;;;21.40;16.48;;;;;;;;;;5032294;28;20472;-78
2023/09/08 03:05:42;;;;;;;21.05;16.17;;;;;;;;;;5032400;28;20037;-78
2023/09/08 03:08:09;;;;;;;21.48;15.93;;;;;;;;;;5032368;28;20026;-78
2023/09/08 03:10:35;;;;;;;18.25;15.70;;;;;;;;;;5032462;28;20355;-78
2023/09/08 03:13:01;;;;;;;21.60;16.30;;;;;;;;;;5032522;28;20025;-78
2023/09/08 03:15:28;;;;;;;18.67;16.42;;;;;;;;;;5032298;28;20026;-77
2023/09/08 03:18:00;;;;;;;20.08;15.40;;;;;;;;;;5032920;28;20028;-78
2023/09/08 03:20:27;;;;;;;17.55;15.10;;;;;;;;;;5032326;28;20507;-78
2023/09/08 03:22:53;;;;;;;18.65;15.05;;;;;;;;;;5032243;28;20103;-77
2023/09/08 03:25:19;;;;;;;18.52;15.27;;;;;;;;;;5032289;28;20022;-78
2023/09/08 03:27:45;;;;;;;19.65;16.02;;;;;;;;;;5032195;28;20715;-78
2023/09/08 03:30:11;;;;;;;19.27;15.43;;;;;;;;;;5032243;28;20105;-77
2023/09/08 03:32:38;;;;;;;20.15;15.07;;;;;;;;;;5032022;28;20029;-78
2023/09/08 03:35:07;;;;;;;19.52;16.20;;;;;;;;;;5032162;28;20091;-77
2023/09/08 03:37:33;;;;;;;18.42;14.85;;;;;;;;;;5032357;28;20345;-78
2023/09/08 03:39:59;;;;;;;19.40;15.52;;;;;;;;;;5032061;28;20463;-77
2023/09/08 03:42:25;;;;;;;18.48;14.95;;;;;;;;;;5032029;28;20506;-77
2023/09/08 03:44:51;;;;;;;20.52;15.95;;;;;;;;;;5031998;28;20105;-78
2023/09/08 03:47:17;;;;;;;17.63;15.07;;;;;;;;;;5031954;28;20390;-77
2023/09/08 03:49:44;;;;;;;19.20;15.90;;;;;;;;;;5034746;28;20029;-78
2023/09/08 03:52:10;;;;;;;17.88;14.45;;;;;;;;;;5035554;28;20554;-78
2023/09/08 03:54:37;;;;;;;22.63;16.38;;;;;;;;;;5035750;28;20144;-77
2023/09/08 03:57:03;;;;;;;19.98;15.27;;;;;;;;;;5035893;28;20059;-77
2023/09/08 03:59:29;;;;;;;20.08;16.95;;;;;;;;;;5035522;28;20495;-78
2023/09/08 04:01:55;;;;;;;18.95;15.27;;;;;;;;;;5017891;28;20568;-78
2023/09/08 04:04:22;;;;;;;18.27;15.68;;;;;;;;;;5035197;28;20068;-77
2023/09/08 04:06:48;;;;;;;19.13;16.20;;;;;;;;;;5035384;28;20022;-78
2023/09/08 04:09:14;;;;;;;20.75;16.58;;;;;;;;;;5035595;28;20032;-78
2023/09/08 04:11:40;;;;;;;20.70;16.77;;;;;;;;;;5035358;28;20021;-78
2023/09/08 04:14:06;;;;;;;21.08;16.70;;;;;;;;;;5035371;28;20418;-77
2023/09/08 04:16:32;;;;;;;20.27;16.85;;;;;;;;;;5017769;28;20029;-78
2023/09/08 04:18:58;;;;;;;20.52;17.20;;;;;;;;;;5035174;28;20087;-77
2023/09/08 04:21:24;;;;;;;19.80;16.50;;;;;;;;;;5035184;28;20029;-77
2023/09/08 04:23:50;;;;;;;19.30;16.67;;;;;;;;;;5035104;28;20463;-78
2023/09/08 04:26:16;;;;;;;23.02;16.77;;;;;;;;;;5035096;28;20037;-77
2023/09/08 04:28:42;;;;;;;21.95;17.08;;;;;;;;;;5035056;28;20053;-77
2023/09/08 04:31:08;;;;;;;19.95;16.98;;;;;;;;;;5034926;28;20562;-78
2023/09/08 04:33:34;;;;;;;19.75;17.13;;;;;;;;;;5034889;28;20499;-77
2023/09/08 04:36:00;;;;;;;21.90;16.73;;;;;;;;;;5034879;28;20368;-78
2023/09/08 04:38:26;;;;;;;15.60;13.45;;;;;;;;;;5030477;28;20030;-78
2023/09/08 04:40:53;;;;;;;17.65;13.55;;;;;;;;;;5014966;28;20037;-77
2023/09/08 04:43:19;;;;;;;22.17;16.50;;;;;;;;;;5014921;28;20092;-78
2023/09/08 04:45:45;;;;;;;21.05;16.73;;;;;;;;;;5015610;28;20026;-79
2023/09/08 04:48:11;;;;;;;18.60;15.02;;;;;;;;;;5015663;28;20033;-78
2023/09/08 04:50:37;;;;;;;22.33;14.48;;;;;;;;;;5015843;28;20034;-79
2023/09/08 04:53:03;;;;;;;19.75;15.02;;;;;;;;;;5015117;28;20050;-79
2023/09/08 04:55:29;;;;;;;17.95;14.63;;;;;;;;;;5014989;28;20045;-78
2023/09/08 04:57:55;;;;;;;17.98;15.13;;;;;;;;;;5015263;28;20062;-78
2023/09/08 05:00:21;;;;;;;20.05;14.98;;;;;;;;;;5014140;28;20104;-78
2023/09/08 05:02:47;;;;;;;19.70;15.68;;;;;;;;;;5035114;28;20489;-78
2023/09/08 05:05:13;;;;;;;19.45;15.88;;;;;;;;;;5055121;28;20459;-78
2023/09/08 05:07:39;;;;;;;20.15;15.45;;;;;;;;;;5044401;28;20113;-78
2023/09/08 05:10:06;;;;;;;16.90;14.13;;;;;;;;;;5020292;28;20065;-79
2023/09/08 05:12:32;;;;;;;20.77;15.10;;;;;;;;;;5038435;28;20025;-78
2023/09/08 05:15:05;;;;;;;18.17;14.85;;;;;;;;;;5034419;28;20032;-78
2023/09/08 05:17:32;;;;;;;19.08;15.25;;;;;;;;;;5035680;28;20026;-78
2023/09/08 05:19:58;;;;;;;21.83;15.27;;;;;;;;;;5016746;28;20034;-78
2023/09/08 05:22:24;;;;;;;17.23;14.13;;;;;;;;;;5034174;28;20036;-78
2023/09/08 05:24:50;;;;;;;17.42;13.75;;;;;;;;;;5035530;28;20456;-77
2023/09/08 05:27:16;;;;;;;18.30;14.13;;;;;;;;;;5034646;28;20025;-78
2023/09/08 05:29:42;;;;;;;17.33;14.60;;;;;;;;;;5034277;28;20414;-78
2023/09/08 05:32:08;;;;;;;19.08;15.57;;;;;;;;;;5034390;28;20061;-78
2023/09/08 05:34:34;;;;;;;19.95;14.30;;;;;;;;;;5037943;28;20532;-78
2023/09/08 05:37:00;;;;;;;17.63;14.30;;;;;;;;;;5055259;28;20021;-78
2023/09/08 05:39:26;;;;;;;17.35;14.75;;;;;;;;;;5038632;28;20053;-78
2023/09/08 05:41:52;;;;;;;15.77;13.95;;;;;;;;;;5035054;28;20053;-78
2023/09/08 05:44:18;;;;;;;18.10;14.38;;;;;;;;;;5016789;28;20122;-78
2023/09/08 05:46:45;;;;;;;19.02;14.63;;;;;;;;;;5034549;28;20415;-78
2023/09/08 05:49:11;;;;;;;18.08;14.63;;;;;;;;;;5034727;28;20013;-78
2023/09/08 05:51:37;;;;;;;17.52;14.65;;;;;;;;;;5034082;28;20056;-78
2023/09/08 05:54:03;;;;;;;21.88;15.95;;;;;;;;;;5033335;28;20054;-78
2023/09/08 05:56:32;;;;;;;19.33;14.40;;;;;;;;;;5012633;28;20044;-78
2023/09/08 05:58:58;;;;;;;20.60;16.60;;;;;;;;;;5014103;28;20040;-78
2023/09/08 06:01:25;;;;;;;21.35;14.85;;;;;;;;;;5013735;28;20093;-77
2023/09/08 06:03:51;;;;;;;17.83;14.35;;;;;;;;;;5013438;28;20037;-77
2023/09/08 06:06:17;;;;;;;18.27;14.27;;;;;;;;;;5013261;28;20030;-77
2023/09/08 06:08:43;;;;;;;20.10;14.20;;;;;;;;;;5013313;28;20112;-77
2023/09/08 06:11:09;;;;;;;18.30;14.15;;;;;;;;;;5013153;28;20025;-77
2023/09/08 06:13:35;;;;;;;16.85;13.80;;;;;;;;;;5013260;28;20432;-77
2023/09/08 06:16:01;;;;;;;17.35;14.55;;;;;;;;;;5015149;28;20025;-77
2023/09/08 06:18:29;;;;;;;20.88;14.30;;;;;;;;;;5045907;28;20063;-77
2023/09/08 06:20:55;;;;;;;17.05;14.23;;;;;;;;;;5032986;28;20025;-77
2023/09/08 06:23:21;;;;;;;18.30;14.18;;;;;;;;;;5044092;28;20040;-77
2023/09/08 06:25:47;;;;;;;17.67;13.90;;;;;;;;;;5052832;28;20028;-77
2023/09/08 06:28:13;;;;;;;16.55;14.02;;;;;;;;;;5052305;28;20471;-77
2023/09/08 06:30:41;;;;;;;21.10;15.32;;;;;;;;;;5052586;28;20036;-78
2023/09/08 06:33:08;;;;;;;16.48;13.93;;;;;;;;;;5052850;28;20405;-77
2023/09/08 06:35:34;;;;;;;17.83;14.23;;;;;;;;;;5052735;28;20109;-78
2023/09/08 06:38:00;;;;;;;16.67;14.23;;;;;;;;;;5049130;28;20105;-77
2023/09/08 06:40:26;;;;;;;19.40;15.00;;;;;;;;;;5038723;28;20026;-78
2023/09/08 06:42:52;;;;;;;15.75;13.23;;;;;;;;;;5052603;28;20108;-78
2023/09/08 06:45:18;;;;;;;18.65;13.90;;;;;;;;;;5039401;28;20044;-77
2023/09/08 06:47:45;;;;;;;17.77;13.85;;;;;;;;;;5015294;28;20025;-77
2023/09/08 06:50:11;;;;;;;19.27;13.60;;;;;;;;;;5015638;28;20036;-77
2023/09/08 06:52:36;;;;;;;15.20;12.90;;;;;;;;;;5051730;28;20124;-78
2023/09/08 06:55:03;;;;;;;14.75;12.82;;;;;;;;;;5017921;28;20026;-77
2023/09/08 06:57:29;;;;;;;18.25;12.75;;;;;;;;;;5037221;28;20080;-77
2023/09/08 06:59:55;;;;;;;15.77;12.32;;;;;;;;;;5041934;28;20021;-78
2023/09/08 07:02:21;;;;;;;15.13;11.73;;;;;;;;;;5034058;28;20359;-78
2023/09/08 07:04:47;;;;;;;14.45;11.50;;;;;;;;;;5034288;28;20040;-78
2023/09/08 07:07:12;;;;;;;14.13;12.52;;;;;;;;;;5051007;28;20078;-78
2023/09/08 07:09:38;;;;;;;14.27;11.77;;;;;;;;;;5038815;28;20494;-78
2023/09/08 07:12:05;;;;;;;13.32;11.63;;;;;;;;;;5053201;28;20024;-78
2023/09/08 07:14:31;;;;;;;15.40;12.45;;;;;;;;;;5055007;28;20029;-78
2023/09/08 07:16:57;;;;;;;12.70;11.40;;;;;;;;;;5055362;28;20031;-78
2023/09/08 07:19:23;;;;;;;12.50;10.88;;;;;;;;;;5055334;28;20029;-78
2023/09/08 07:21:49;;;;;;;13.40;11.95;;;;;;;;;;5055544;28;20021;-78
2023/09/08 07:24:15;;;;;;;11.90;10.70;;;;;;;;;;5058764;28;20037;-78
2023/09/08 07:26:42;;;;;;;13.73;12.30;;;;;;;;;;5059903;28;20047;-79
2023/09/08 07:29:08;;;;;;;14.25;12.77;;;;;;;;;;5059319;28;20025;-78
2023/09/08 07:31:34;;;;;;;15.13;13.00;;;;;;;;;;5060987;28;20021;-79
2023/09/08 07:34:00;;;;;;;14.95;11.98;;;;;;;;;;5062812;28;20076;-79
2023/09/08 07:36:26;;;;;;;14.43;13.02;;;;;;;;;;5060400;28;20463;-78
2023/09/08 07:38:52;;;;;;;15.15;13.45;;;;;;;;;;5056356;28;20104;-76
2023/09/08 07:41:18;;;;;;;16.98;13.85;;;;;;;;;;5055755;28;20378;-77
2023/09/08 07:43:45;;;;;;;16.45;14.38;;;;;;;;;;5055604;28;20463;-76
2023/09/08 07:46:11;;;;;;;16.30;14.50;;;;;;;;;;5055861;28;20021;-77
2023/09/08 07:48:37;;;;;;;16.83;15.05;;;;;;;;;;5055565;28;20064;-77
2023/09/08 07:51:03;;;;;;;18.45;16.17;;;;;;;;;;5055571;28;20057;-77
2023/09/08 07:53:29;;;;;;;18.73;16.20;;;;;;;;;;5055263;28;20076;-75
2023/09/08 07:55:55;;;;;;;18.15;16.25;;;;;;;;;;5055898;28;20031;-75
2023/09/08 07:58:22;;;;;;;17.80;15.35;;;;;;;;;;5055604;28;20104;-75
2023/09/08 08:00:48;;;;;;;21.48;16.83;;;;;;;;;;5055577;28;20370;-76
2023/09/08 08:03:14;;;;;;;19.00;17.08;;;;;;;;;;5055419;28;20119;-75
2023/09/08 08:05:40;;;;;;;22.55;18.50;;;;;;;;;;5055364;28;20100;-75
2023/09/08 08:08:09;;;;;;;21.45;17.85;;;;;;;;;;5055473;28;20017;-75
2023/09/08 08:10:35;;;;;;;23.90;18.15;;;;;;;;;;5055281;28;20363;-75
2023/09/08 08:13:01;;;;;;;21.00;18.80;;;;;;;;;;5055478;28;20036;-75
2023/09/08 08:15:38;;;;;;;21.67;18.75;;;;;;;;;;5055114;28;20021;-75
2023/09/08 08:18:05;;;;;;;21.42;19.05;;;;;;;;;;5055001;28;20025;-75
2023/09/08 08:20:34;;;;;;;22.85;18.40;;;;;;;;;;5054984;28;20021;-75
2023/09/08 08:23:00;;;;;;;22.10;19.25;;;;;;;;;;5055237;28;20036;-75
2023/09/08 08:25:26;;;;;;;23.02;20.52;;;;;;;;;;5054923;28;20029;-75
2023/09/08 08:27:58;;;;;;;21.65;19.20;;;;;;;;;;5054905;28;20151;-76
2023/09/08 08:30:24;;;;;;;22.33;19.88;;;;;;;;;;5055285;28;20459;-76
2023/09/08 08:32:51;;;;;;;22.05;18.52;;;;;;;;;;5054780;28;20474;-76
2023/09/08 08:35:17;;;;;;;24.00;18.70;;;;;;;;;;5053786;28;20024;-78
2023/09/08 08:37:43;;;;;;;20.00;17.73;;;;;;;;;;5059323;28;20017;-79
2023/09/08 08:40:13;;;;;;;25.95;20.02;;;;;;;;;;5057085;28;20107;-76
2023/09/08 08:42:40;;;;;;;23.13;19.75;;;;;;;;;;5045296;28;20033;-76
2023/09/08 08:45:06;;;;;;;24.23;20.08;;;;;;;;;;5014532;28;20018;-76
2023/09/08 08:47:32;;;;;;;21.33;19.05;;;;;;;;;;5014846;28;20030;-76
2023/09/08 08:49:59;;;;;;;25.40;20.80;;;;;;;;;;5014840;28;20026;-76
2023/09/08 08:52:26;;;;;;;23.30;19.75;;;;;;;;;;5014404;28;20057;-77
2023/09/08 08:54:52;;;;;;;22.35;19.02;;;;;;;;;;5015362;28;20096;-76
2023/09/08 08:57:18;;;;;;;23.52;20.25;;;;;;;;;;5033644;28;20626;-76
2023/09/08 08:59:46;;;;;;;23.48;18.80;;;;;;;;;;5033933;28;20040;-76
2023/09/08 09:02:14;;;;;;;20.50;18.08;;;;;;;;;;5033052;28;20425;-76
2023/09/08 09:04:41;;;;;;;19.73;17.70;;;;;;;;;;5033579;28;20056;-75
2023/09/08 09:07:07;;;;;;;20.85;17.05;;;;;;;;;;5028488;28;20018;-75
2023/09/08 09:09:33;;;;;;;16.15;14.55;;;;;;;;;;5023865;28;20376;-75
2023/09/08 09:12:02;;;;;;;15.35;13.00;;;;;;;;;;5033302;28;20399;-75
2023/09/08 09:14:28;;;;;;;16.88;12.70;;;;;;;;;;5033664;28;20120;-75
2023/09/08 09:16:57;;;;;;;12.98;11.68;;;;;;;;;;5032979;28;20029;-75
2023/09/08 09:19:31;;;;;;;12.43;11.00;;;;;;;;;;5033106;28;20478;-75
2023/09/08 09:21:57;;;;;;;13.35;12.00;;;;;;;;;;5033106;28;20078;-75
2023/09/08 09:24:30;;;;;;;12.38;10.98;;;;;;;;;;5032969;28;20038;-79
2023/09/08 09:26:56;;;;;;;13.05;11.90;;;;;;;;;;5033465;28;20021;-76
2023/09/08 09:29:22;;;;;;;13.00;11.60;;;;;;;;;;5029546;28;20030;-75
2023/09/08 09:31:55;;;;;;;11.40;10.35;;;;;;;;;;5032591;28;20029;-75
2023/09/08 09:34:21;;;;;;;12.15;11.05;;;;;;;;;;5033061;28;20028;-75
2023/09/08 09:36:49;;;;;;;11.95;10.85;;;;;;;;;;5032529;28;20026;-75
2023/09/08 09:39:19;;;;;;;12.50;11.38;;;;;;;;;;5032906;28;20021;-75
2023/09/08 09:41:46;;;;;;;11.52;9.98;;;;;;;;;;5028352;28;20380;-75
2023/09/08 09:44:13;;;;;;;10.90;9.80;;;;;;;;;;5012557;28;20032;-75
2023/09/08 09:46:39;;;;;;;11.57;10.48;;;;;;;;;;5012418;28;20022;-75
2023/09/08 09:49:05;;;;;;;11.40;10.30;;;;;;;;;;5018045;28;20100;-75
2023/09/08 09:51:31;;;;;;;12.23;11.02;;;;;;;;;;5032337;28;20037;-75
2023/09/08 09:53:58;;;;;;;11.27;10.32;;;;;;;;;;5032033;28;20064;-75
2023/09/08 09:56:25;;;;;;;14.75;11.98;;;;;;;;;;5032562;28;20376;-75
2023/09/08 09:58:52;;;;;;;12.25;11.02;;;;;;;;;;5032419;28;20030;-75
2023/09/08 10:01:19;;;;;;;13.38;11.93;;;;;;;;;;5031735;28;20119;-75
2023/09/08 10:03:45;;;;;;;12.75;11.55;;;;;;;;;;5026685;28;20484;-76
2023/09/08 10:06:11;;;;;;;12.93;11.73;;;;;;;;;;5024440;28;20420;-75
2023/09/08 10:08:38;;;;;;;12.73;11.50;;;;;;;;;;5032426;28;20023;-75
2023/09/08 10:11:06;;;;;;;13.25;12.02;;;;;;;;;;5031883;28;20100;-75
2023/09/08 10:13:33;;;;;;;13.50;12.20;;;;;;;;;;5025757;28;20030;-75
2023/09/08 10:16:01;;;;;;;13.05;11.85;;;;;;;;;;5012386;28;20076;-76
2023/09/08 10:18:28;;;;;;;13.95;12.63;;;;;;;;;;4994514;28;20026;-76
2023/09/08 10:20:56;;;;;;;12.48;11.27;;;;;;;;;;5012550;28;20018;-75
2023/09/08 10:23:37;;;;;;;13.30;11.98;;;;;;;;;;5011945;28;20032;-75
2023/09/08 10:26:06;;;;;;;13.32;12.00;;;;;;;;;;5011946;28;20053;-75
2023/09/08 10:28:33;;;;;;;12.43;11.23;;;;;;;;;;5021644;28;20075;-75
2023/09/08 10:31:00;;;;;;;12.60;11.43;;;;;;;;;;5031550;28;20088;-75
2023/09/08 10:33:26;;;;;;;13.70;12.40;;;;;;;;;;5031739;28;20655;-75
2023/09/08 10:35:53;;;;;;;13.05;11.60;;;;;;;;;;5031520;28;20022;-76
2023/09/08 10:38:22;;;;;;;12.88;11.57;;;;;;;;;;5031606;28;20109;-75
2023/09/08 10:40:49;;;;;;;12.60;11.32;;;;;;;;;;5031768;28;20049;-76
2023/09/08 10:43:15;;;;;;;15.18;11.23;;;;;;;;;;5031451;28;20055;-76
2023/09/08 10:45:41;;;;;;;11.27;10.18;;;;;;;;;;5031148;28;20029;-76
2023/09/08 10:48:07;;;;;;;9.73;8.77;;;;;;;;;;5042899;28;20112;-76
2023/09/08 10:50:34;;;;;;;9.20;8.07;;;;;;;;;;5033260;28;20096;-76
2023/09/08 10:53:19;;;;;;;10.40;9.50;;;;;;;;;;5031270;28;20042;-76
2023/09/08 10:55:53;;;;;;;9.95;9.02;;;;;;;;;;5031530;28;20056;-76
2023/09/08 10:58:29;;;;;;;9.30;8.50;;;;;;;;;;5030839;28;20017;-76
2023/09/08 11:00:57;;;;;;;11.23;10.13;;;;;;;;;;5031405;28;20387;-76
2023/09/08 11:03:27;;;;;;;11.05;9.57;;;;;;;;;;5031340;28;20521;-76
2023/09/08 11:05:53;;;;;;;10.18;8.95;;;;;;;;;;5031360;28;20022;-76
2023/09/08 11:08:19;;;;;;;10.10;9.10;;;;;;;;;;5031550;28;20030;-76
2023/09/08 11:10:45;;;;;;;10.80;9.73;;;;;;;;;;5031238;28;20022;-76
2023/09/08 11:13:12;;;;;;;8.95;8.23;;;;;;;;;;5031279;28;20527;-77
2023/09/08 11:15:38;;;;;;;10.88;9.85;;;;;;;;;;5031478;28;20525;-77
2023/09/08 11:18:07;;;;;;;9.50;8.50;;;;;;;;;;5031460;28;20030;-77
2023/09/08 11:20:35;;;;;;;9.90;9.00;;;;;;;;;;5031175;28;20032;-77
2023/09/08 11:23:01;;;;;;;9.23;7.78;;;;;;;;;;5031417;28;20022;-77
2023/09/08 11:25:27;;;;;;;9.07;8.27;;;;;;;;;;5031518;28;20418;-77
2023/09/08 11:27:53;;;;;;;11.65;8.73;;;;;;;;;;5031234;28;20121;-77
2023/09/08 11:30:19;;;;;;;8.57;7.88;;;;;;;;;;5031148;28;20037;-77
2023/09/08 11:32:45;;;;;;;8.27;7.55;;;;;;;;;;5031389;28;20029;-77
2023/09/08 11:35:12;;;;;;;9.40;8.50;;;;;;;;;;5031039;28;20455;-77
2023/09/08 11:37:39;;;;;;;9.65;8.75;;;;;;;;;;5031790;28;20044;-77
2023/09/08 11:40:12;;;;;;;9.45;8.32;;;;;;;;;;5030914;28;20017;-77
2023/09/08 11:42:43;;;;;;;10.77;8.27;;;;;;;;;;5031234;28;20072;-77
2023/09/08 11:45:10;;;;;;;8.02;7.32;;;;;;;;;;5031238;28;20032;-77
2023/09/08 11:47:36;;;;;;;8.02;7.22;;;;;;;;;;5030932;28;20017;-77
2023/09/08 11:50:03;;;;;;;7.70;6.82;;;;;;;;;;5030978;28;20039;-77
2023/09/08 11:52:29;;;;;;;11.32;7.00;;;;;;;;;;5030671;28;20378;-78
2023/09/08 11:54:55;;;;;;;7.40;6.80;;;;;;;;;;5031182;28;20057;-77
2023/09/08 11:57:21;;;;;;;7.95;7.10;;;;;;;;;;5031008;28;20026;-77
2023/09/08 11:59:48;;;;;;;11.15;7.10;;;;;;;;;;5030847;28;20022;-76
2023/09/08 12:02:14;;;;;;;8.07;7.38;;;;;;;;;;5030722;28;20028;-76
2023/09/08 12:04:42;;;;;;;8.15;6.40;;;;;;;;;;5030870;28;20033;-76
2023/09/08 12:07:16;;;;;;;7.15;6.55;;;;;;;;;;5011165;28;20125;-76
2023/09/08 12:09:42;;;;;;;7.07;6.40;;;;;;;;;;5012168;28;20014;-76
2023/09/08 12:12:13;;;;;;;8.23;6.60;;;;;;;;;;4996959;28;20026;-76
2023/09/08 12:14:42;;;;;;;6.95;6.35;;;;;;;;;;5014720;28;20058;-76
2023/09/08 12:17:08;;;;;;;7.50;6.72;;;;;;;;;;5032591;28;20103;-76
2023/09/08 12:19:38;;;;;;;7.28;6.55;;;;;;;;;;5034178;28;20071;-76
2023/09/08 12:22:04;;;;;;;8.20;6.28;;;;;;;;;;5034194;28;20690;-76
2023/09/08 12:25:01;;;;;;;7.18;6.47;;;;;;;;;;5034069;28;20122;-77
2023/09/08 12:27:27;;;;;;;7.53;6.90;;;;;;;;;;5014363;28;20379;-76
2023/09/08 12:29:55;;;;;;;7.97;6.35;;;;;;;;;;5033668;28;20040;-76
2023/09/08 12:32:21;;;;;;;7.15;6.55;;;;;;;;;;5033869;28;20022;-76
2023/09/08 12:34:47;;;;;;;8.82;6.63;;;;;;;;;;5034074;28;20087;-76
2023/09/08 12:37:13;;;;;;;7.40;6.32;;;;;;;;;;5033769;28;20117;-76
2023/09/08 12:39:39;;;;;;;7.20;5.63;;;;;;;;;;5033757;28;20132;-76
2023/09/08 12:42:05;;;;;;;6.70;6.00;;;;;;;;;;5033775;28;20057;-76
2023/09/08 12:44:31;;;;;;;7.03;6.43;;;;;;;;;;5033864;28;20091;-76
2023/09/08 12:46:57;;;;;;;7.05;6.35;;;;;;;;;;5033665;28;20029;-76
2023/09/08 12:49:23;;;;;;;6.97;6.30;;;;;;;;;;5033603;28;20017;-76
2023/09/08 12:51:49;;;;;;;6.97;6.35;;;;;;;;;;5033503;28;20048;-77
2023/09/08 12:54:15;;;;;;;6.72;5.97;;;;;;;;;;5033832;28;20092;-77
2023/09/08 12:56:41;;;;;;;6.88;6.28;;;;;;;;;;5033462;28;20341;-77
2023/09/08 12:59:07;;;;;;;6.13;5.60;;;;;;;;;;5033398;28;20079;-77
2023/09/08 13:01:33;;;;;;;7.65;5.72;;;;;;;;;;5033082;28;20022;-77
2023/09/08 13:03:59;;;;;;;7.25;5.60;;;;;;;;;;5033595;28;20042;-77
2023/09/08 13:06:25;;;;;;;6.38;5.78;;;;;;;;;;5033935;28;20472;-77
2023/09/08 13:08:51;;;;;;;6.45;5.82;;;;;;;;;;5033135;28;20036;-77
2023/09/08 13:11:17;;;;;;;6.38;5.72;;;;;;;;;;5032377;28;20036;-77
2023/09/08 13:13:43;;;;;;;6.65;6.05;;;;;;;;;;5020880;28;20025;-77
2023/09/08 13:16:09;;;;;;;6.90;5.88;;;;;;;;;;5033244;28;20025;-77
2023/09/08 13:18:38;;;;;;;7.68;5.85;;;;;;;;;;5033228;28;20427;-77
2023/09/08 13:21:04;;;;;;;6.15;5.50;;;;;;;;;;5019371;28;20071;-77
2023/09/08 13:23:30;;;;;;;5.97;5.47;;;;;;;;;;5033171;28;20586;-77
2023/09/08 13:25:56;;;;;;;6.72;5.47;;;;;;;;;;5032936;28;20475;-78
2023/09/08 13:28:22;;;;;;;5.97;5.45;;;;;;;;;;5032962;28;20032;-78
2023/09/08 13:30:48;;;;;;;6.00;5.40;;;;;;;;;;5033015;28;20052;-77
2023/09/08 13:33:14;;;;;;;5.68;5.28;;;;;;;;;;5032846;28;20037;-77
2023/09/08 13:35:40;;;;;;;6.03;5.45;;;;;;;;;;5033026;28;20057;-77
2023/09/08 13:38:06;;;;;;;5.40;5.00;;;;;;;;;;5032732;28;20104;-77
2023/09/08 13:40:33;;;;;;;6.72;5.40;;;;;;;;;;5033186;28;20029;-77
2023/09/08 13:43:00;;;;;;;6.32;5.35;;;;;;;;;;5033201;28;20040;-77
2023/09/08 13:45:26;;;;;;;7.57;5.70;;;;;;;;;;5032795;28;20029;-78
2023/09/08 13:47:52;;;;;;;6.28;5.68;;;;;;;;;;5032717;28;20033;-77
2023/09/08 13:50:18;;;;;;;6.25;5.35;;;;;;;;;;5032604;28;20021;-77
2023/09/08 13:52:44;;;;;;;6.10;5.50;;;;;;;;;;5031721;28;20431;-78
2023/09/08 13:55:10;;;;;;;5.28;4.88;;;;;;;;;;5032315;28;20029;-77
2023/09/08 13:57:37;;;;;;;6.20;5.60;;;;;;;;;;5031999;28;20029;-77
2023/09/08 14:00:04;;;;;;;6.35;5.75;;;;;;;;;;5032548;28;20026;-77
2023/09/08 14:02:30;;;;;;;6.38;5.78;;;;;;;;;;5032223;28;20099;-77
2023/09/08 14:04:56;;;;;;;6.25;5.75;;;;;;;;;;5032334;28;20061;-77
2023/09/08 14:07:22;;;;;;;6.28;5.75;;;;;;;;;;5032289;28;20058;-77
2023/09/08 14:09:48;;;;;;;5.93;5.40;;;;;;;;;;5031917;28;20443;-77
2023/09/08 14:12:14;;;;;;;7.57;5.57;;;;;;;;;;5031918;28;20026;-77
2023/09/08 14:14:40;;;;;;;6.15;5.57;;;;;;;;;;5031817;28;20030;-77
2023/09/08 14:17:06;;;;;;;5.60;5.20;;;;;;;;;;5031861;28;20027;-77
2023/09/08 14:19:32;;;;;;;5.50;4.97;;;;;;;;;;5041124;28;20025;-76
2023/09/08 14:21:58;;;;;;;6.05;5.55;;;;;;;;;;5051728;28;20025;-76